Terminal Aerodrome Forecast
Issued by NWS

Home | Current Version | Previous Version | Text Only | Print | Product List | Glossary On
Versions: 1 2 3 4 5 6 7 8 9 10 11 12 13 14 15 16 17 18 19 20 21 22 23 24 25 26 27
385
FTUS43 KDVN 211009 AAA
TAFCID
TAF AMD
KCID 211009Z 2110/2206 14005KT 1/4SM -DZ FG OVC002
     FM211700 20006KT 1/2SM FG OVC002
     FM211800 21007KT 2SM BR OVC004
     FM212000 20008KT 5SM HZ BKN012
     FM220200 19004KT 2SM BR BKN003=

USA.gov is the U.S. government's official web portal to all federal, state and local government web resources and services.